sensor_id;sensor_type;location;lat;lon;timestamp;temperature;humidity
65462;DHT22;53236;43.666;18.444;2023-04-24T00:00:12;6.00;99.90
65462;DHT22;53236;43.666;18.444;2023-04-24T00:02:41;5.90;99.90
65462;DHT22;53236;43.666;18.444;2023-04-24T00:05:12;6.00;99.90
65462;DHT22;53236;43.666;18.444;2023-04-24T00:07:39;5.90;99.90
65462;DHT22;53236;43.666;18.444;2023-04-24T00:10:06;5.80;99.90
65462;DHT22;53236;43.666;18.444;2023-04-24T00:12:32;5.90;99.90
65462;DHT22;53236;43.666;18.444;2023-04-24T00:14:58;6.00;99.90
65462;DHT22;53236;43.666;18.444;2023-04-24T00:17:23;5.90;99.90
65462;DHT22;53236;43.666;18.444;2023-04-24T00:19:49;5.90;99.90
65462;DHT22;53236;43.666;18.444;2023-04-24T00:22:25;6.00;99.90
65462;DHT22;53236;43.666;18.444;2023-04-24T00:24:51;5.90;99.90
65462;DHT22;53236;43.666;18.444;2023-04-24T00:27:17;5.90;99.90
65462;DHT22;53236;43.666;18.444;2023-04-24T00:29:42;5.90;99.90
65462;DHT22;53236;43.666;18.444;2023-04-24T00:32:08;5.90;99.90
65462;DHT22;53236;43.666;18.444;2023-04-24T00:34:34;5.90;99.90
65462;DHT22;53236;43.666;18.444;2023-04-24T00:37:00;5.90;99.90
65462;DHT22;53236;43.666;18.444;2023-04-24T00:39:26;5.90;99.90
65462;DHT22;53236;43.666;18.444;2023-04-24T00:41:52;5.90;99.90
65462;DHT22;53236;43.666;18.444;2023-04-24T00:44:18;5.90;99.90
65462;DHT22;53236;43.666;18.444;2023-04-24T00:46:46;5.90;99.90
65462;DHT22;53236;43.666;18.444;2023-04-24T00:49:13;6.00;99.90
65462;DHT22;53236;43.666;18.444;2023-04-24T00:51:39;6.00;99.90
65462;DHT22;53236;43.666;18.444;2023-04-24T00:54:06;6.10;99.90
65462;DHT22;53236;43.666;18.444;2023-04-24T00:56:31;6.10;99.90
65462;DHT22;53236;43.666;18.444;2023-04-24T00:58:58;6.10;99.90
65462;DHT22;53236;43.666;18.444;2023-04-24T01:01:24;6.00;99.90
65462;DHT22;53236;43.666;18.444;2023-04-24T01:03:52;5.90;99.90
65462;DHT22;53236;43.666;18.444;2023-04-24T01:06:19;5.90;99.90
65462;DHT22;53236;43.666;18.444;2023-04-24T01:08:46;5.90;99.90
65462;DHT22;53236;43.666;18.444;2023-04-24T01:11:13;5.90;99.90
65462;DHT22;53236;43.666;18.444;2023-04-24T01:13:39;5.90;99.90
65462;DHT22;53236;43.666;18.444;2023-04-24T01:16:05;6.00;99.90
65462;DHT22;53236;43.666;18.444;2023-04-24T01:18:31;6.00;99.90
65462;DHT22;53236;43.666;18.444;2023-04-24T01:20:59;6.00;99.90
65462;DHT22;53236;43.666;18.444;2023-04-24T01:23:26;5.80;99.90
65462;DHT22;53236;43.666;18.444;2023-04-24T01:25:52;5.80;99.90
65462;DHT22;53236;43.666;18.444;2023-04-24T01:28:18;5.90;99.90
65462;DHT22;53236;43.666;18.444;2023-04-24T01:30:44;5.90;99.90
65462;DHT22;53236;43.666;18.444;2023-04-24T01:33:10;5.90;99.90
65462;DHT22;53236;43.666;18.444;2023-04-24T01:35:37;5.90;99.90
65462;DHT22;53236;43.666;18.444;2023-04-24T01:38:03;6.00;99.90
65462;DHT22;53236;43.666;18.444;2023-04-24T01:40:30;6.00;99.90
65462;DHT22;53236;43.666;18.444;2023-04-24T01:42:57;6.00;99.90
65462;DHT22;53236;43.666;18.444;2023-04-24T01:45:23;6.10;99.90
65462;DHT22;53236;43.666;18.444;2023-04-24T01:47:50;6.10;99.90
65462;DHT22;53236;43.666;18.444;2023-04-24T01:50:16;6.00;99.90
65462;DHT22;53236;43.666;18.444;2023-04-24T01:52:42;6.00;99.90
65462;DHT22;53236;43.666;18.444;2023-04-24T01:55:08;6.00;99.90
65462;DHT22;53236;43.666;18.444;2023-04-24T01:57:34;6.00;99.90
65462;DHT22;53236;43.666;18.444;2023-04-24T02:00:01;6.00;99.90
65462;DHT22;53236;43.666;18.444;2023-04-24T02:02:29;6.00;99.90
65462;DHT22;53236;43.666;18.444;2023-04-24T02:04:56;6.00;99.90
65462;DHT22;53236;43.666;18.444;2023-04-24T02:07:22;6.00;99.90
65462;DHT22;53236;43.666;18.444;2023-04-24T02:09:48;5.90;99.90
65462;DHT22;53236;43.666;18.444;2023-04-24T02:12:14;5.90;99.90
65462;DHT22;53236;43.666;18.444;2023-04-24T02:14:40;6.00;99.90
65462;DHT22;53236;43.666;18.444;2023-04-24T02:17:07;6.00;99.90
65462;DHT22;53236;43.666;18.444;2023-04-24T02:19:33;6.10;99.90
65462;DHT22;53236;43.666;18.444;2023-04-24T02:21:59;6.10;99.90
65462;DHT22;53236;43.666;18.444;2023-04-24T02:24:25;6.20;99.90
65462;DHT22;53236;43.666;18.444;2023-04-24T02:26:51;6.30;99.90
65462;DHT22;53236;43.666;18.444;2023-04-24T02:29:16;6.30;99.90
65462;DHT22;53236;43.666;18.444;2023-04-24T02:31:42;6.30;99.90
65462;DHT22;53236;43.666;18.444;2023-04-24T02:34:08;6.30;99.90
65462;DHT22;53236;43.666;18.444;2023-04-24T02:36:33;6.30;99.90
65462;DHT22;53236;43.666;18.444;2023-04-24T02:38:59;6.30;99.90
65462;DHT22;53236;43.666;18.444;2023-04-24T02:41:26;6.30;99.90
65462;DHT22;53236;43.666;18.444;2023-04-24T02:43:57;6.40;99.90
65462;DHT22;53236;43.666;18.444;2023-04-24T02:46:23;6.40;99.90
65462;DHT22;53236;43.666;18.444;2023-04-24T02:48:49;6.40;99.90
65462;DHT22;53236;43.666;18.444;2023-04-24T02:51:14;6.50;99.90
65462;DHT22;53236;43.666;18.444;2023-04-24T02:53:40;6.40;99.90
65462;DHT22;53236;43.666;18.444;2023-04-24T02:56:06;6.40;99.90
65462;DHT22;53236;43.666;18.444;2023-04-24T02:58:32;6.40;99.90
65462;DHT22;53236;43.666;18.444;2023-04-24T03:00:57;6.40;99.90
65462;DHT22;53236;43.666;18.444;2023-04-24T03:03:23;6.40;99.90
65462;DHT22;53236;43.666;18.444;2023-04-24T03:05:50;6.40;99.90
65462;DHT22;53236;43.666;18.444;2023-04-24T03:08:16;6.50;99.90
65462;DHT22;53236;43.666;18.444;2023-04-24T03:10:41;6.30;99.90
65462;DHT22;53236;43.666;18.444;2023-04-24T03:13:07;6.40;99.90
65462;DHT22;53236;43.666;18.444;2023-04-24T03:15:33;6.40;99.90
65462;DHT22;53236;43.666;18.444;2023-04-24T03:17:59;6.40;99.90
65462;DHT22;53236;43.666;18.444;2023-04-24T03:20:26;6.50;99.90
65462;DHT22;53236;43.666;18.444;2023-04-24T03:22:52;6.60;99.90
65462;DHT22;53236;43.666;18.444;2023-04-24T03:25:18;6.50;99.90
65462;DHT22;53236;43.666;18.444;2023-04-24T03:27:43;6.50;99.90
65462;DHT22;53236;43.666;18.444;2023-04-24T03:30:10;6.50;99.90
65462;DHT22;53236;43.666;18.444;2023-04-24T03:32:36;6.50;99.90
65462;DHT22;53236;43.666;18.444;2023-04-24T03:35:02;6.60;99.90
65462;DHT22;53236;43.666;18.444;2023-04-24T03:37:29;6.60;99.90
65462;DHT22;53236;43.666;18.444;2023-04-24T03:39:54;6.70;99.90
65462;DHT22;53236;43.666;18.444;2023-04-24T03:42:20;6.80;99.90
65462;DHT22;53236;43.666;18.444;2023-04-24T03:44:46;7.00;99.90
65462;DHT22;53236;43.666;18.444;2023-04-24T03:47:11;7.10;99.90
65462;DHT22;53236;43.666;18.444;2023-04-24T03:49:37;7.20;99.90
65462;DHT22;53236;43.666;18.444;2023-04-24T03:52:03;7.30;99.90
65462;DHT22;53236;43.666;18.444;2023-04-24T03:54:29;7.40;99.90
65462;DHT22;53236;43.666;18.444;2023-04-24T03:56:54;7.40;99.90
65462;DHT22;53236;43.666;18.444;2023-04-24T03:59:20;7.30;99.90
65462;DHT22;53236;43.666;18.444;2023-04-24T04:01:46;7.40;99.90
65462;DHT22;53236;43.666;18.444;2023-04-24T04:04:12;7.50;99.90
65462;DHT22;53236;43.666;18.444;2023-04-24T04:06:38;7.50;99.90
65462;DHT22;53236;43.666;18.444;2023-04-24T04:09:03;7.50;99.90
65462;DHT22;53236;43.666;18.444;2023-04-24T04:11:29;7.50;99.90
65462;DHT22;53236;43.666;18.444;2023-04-24T04:13:56;7.40;99.90
65462;DHT22;53236;43.666;18.444;2023-04-24T04:16:22;7.50;99.90
65462;DHT22;53236;43.666;18.444;2023-04-24T04:18:50;7.50;99.90
65462;DHT22;53236;43.666;18.444;2023-04-24T04:21:15;7.50;99.90
65462;DHT22;53236;43.666;18.444;2023-04-24T04:23:41;7.80;99.90
65462;DHT22;53236;43.666;18.444;2023-04-24T04:26:07;7.80;99.90
65462;DHT22;53236;43.666;18.444;2023-04-24T04:28:33;7.90;99.90
65462;DHT22;53236;43.666;18.444;2023-04-24T04:31:00;7.90;99.90
65462;DHT22;53236;43.666;18.444;2023-04-24T04:33:26;7.90;99.90
65462;DHT22;53236;43.666;18.444;2023-04-24T04:35:52;7.80;99.90
65462;DHT22;53236;43.666;18.444;2023-04-24T04:38:18;7.90;99.90
65462;DHT22;53236;43.666;18.444;2023-04-24T04:40:45;7.90;99.90
65462;DHT22;53236;43.666;18.444;2023-04-24T04:43:12;7.80;99.90
65462;DHT22;53236;43.666;18.444;2023-04-24T04:45:39;7.80;99.90
65462;DHT22;53236;43.666;18.444;2023-04-24T04:48:06;7.90;99.90
65462;DHT22;53236;43.666;18.444;2023-04-24T04:50:38;7.90;99.90
65462;DHT22;53236;43.666;18.444;2023-04-24T04:53:04;7.90;99.90
65462;DHT22;53236;43.666;18.444;2023-04-24T04:55:30;7.90;99.90
65462;DHT22;53236;43.666;18.444;2023-04-24T04:57:56;8.00;99.90
65462;DHT22;53236;43.666;18.444;2023-04-24T05:00:22;7.90;99.90
65462;DHT22;53236;43.666;18.444;2023-04-24T05:02:51;7.90;99.90
65462;DHT22;53236;43.666;18.444;2023-04-24T05:05:17;7.90;99.90
65462;DHT22;53236;43.666;18.444;2023-04-24T05:07:44;8.00;99.90
65462;DHT22;53236;43.666;18.444;2023-04-24T05:10:10;8.00;99.90
65462;DHT22;53236;43.666;18.444;2023-04-24T05:12:36;8.10;99.90
65462;DHT22;53236;43.666;18.444;2023-04-24T05:15:02;8.10;99.90
65462;DHT22;53236;43.666;18.444;2023-04-24T05:17:28;8.10;99.90
65462;DHT22;53236;43.666;18.444;2023-04-24T05:19:54;8.20;99.90
65462;DHT22;53236;43.666;18.444;2023-04-24T05:22:20;8.30;99.90
65462;DHT22;53236;43.666;18.444;2023-04-24T05:24:47;8.40;99.90
65462;DHT22;53236;43.666;18.444;2023-04-24T05:27:13;8.40;99.90
65462;DHT22;53236;43.666;18.444;2023-04-24T05:29:39;8.50;99.90
65462;DHT22;53236;43.666;18.444;2023-04-24T05:32:05;8.50;99.90
65462;DHT22;53236;43.666;18.444;2023-04-24T05:34:31;8.70;99.90
65462;DHT22;53236;43.666;18.444;2023-04-24T05:36:57;8.70;99.90
65462;DHT22;53236;43.666;18.444;2023-04-24T05:39:22;8.80;99.90
65462;DHT22;53236;43.666;18.444;2023-04-24T05:41:50;8.90;99.90
65462;DHT22;53236;43.666;18.444;2023-04-24T05:44:16;9.10;99.90
65462;DHT22;53236;43.666;18.444;2023-04-24T05:46:42;9.20;99.90
65462;DHT22;53236;43.666;18.444;2023-04-24T05:49:08;9.30;99.90
65462;DHT22;53236;43.666;18.444;2023-04-24T05:51:33;9.50;99.90
65462;DHT22;53236;43.666;18.444;2023-04-24T05:53:59;9.70;99.90
65462;DHT22;53236;43.666;18.444;2023-04-24T05:56:25;10.00;99.90
65462;DHT22;53236;43.666;18.444;2023-04-24T05:58:51;10.30;99.90
65462;DHT22;53236;43.666;18.444;2023-04-24T06:01:17;10.70;99.90
65462;DHT22;53236;43.666;18.444;2023-04-24T06:03:43;11.10;99.90
65462;DHT22;53236;43.666;18.444;2023-04-24T06:06:09;11.50;99.90
65462;DHT22;53236;43.666;18.444;2023-04-24T06:08:35;11.90;99.90
65462;DHT22;53236;43.666;18.444;2023-04-24T06:11:01;12.10;99.90
65462;DHT22;53236;43.666;18.444;2023-04-24T06:13:27;12.50;99.90
65462;DHT22;53236;43.666;18.444;2023-04-24T06:15:53;12.70;99.90
65462;DHT22;53236;43.666;18.444;2023-04-24T06:18:19;12.90;99.90
65462;DHT22;53236;43.666;18.444;2023-04-24T06:20:47;13.10;99.90
65462;DHT22;53236;43.666;18.444;2023-04-24T06:23:13;13.30;98.10
65462;DHT22;53236;43.666;18.444;2023-04-24T06:25:38;13.60;97.80
65462;DHT22;53236;43.666;18.444;2023-04-24T06:28:05;13.80;97.60
65462;DHT22;53236;43.666;18.444;2023-04-24T06:30:31;13.80;96.00
65462;DHT22;53236;43.666;18.444;2023-04-24T06:32:56;13.80;98.90
65462;DHT22;53236;43.666;18.444;2023-04-24T06:35:23;13.70;97.50
65462;DHT22;53236;43.666;18.444;2023-04-24T06:37:48;13.60;98.30
65462;DHT22;53236;43.666;18.444;2023-04-24T06:40:14;13.60;97.00
65462;DHT22;53236;43.666;18.444;2023-04-24T06:42:40;13.60;97.80
65462;DHT22;53236;43.666;18.444;2023-04-24T06:45:06;13.50;97.50
65462;DHT22;53236;43.666;18.444;2023-04-24T06:47:32;13.40;98.60
65462;DHT22;53236;43.666;18.444;2023-04-24T06:49:58;13.30;99.90
65462;DHT22;53236;43.666;18.444;2023-04-24T06:52:24;13.20;99.90
65462;DHT22;53236;43.666;18.444;2023-04-24T06:54:50;13.10;99.90
65462;DHT22;53236;43.666;18.444;2023-04-24T06:57:15;13.00;99.90
65462;DHT22;53236;43.666;18.444;2023-04-24T06:59:42;12.90;99.90
65462;DHT22;53236;43.666;18.444;2023-04-24T07:02:07;12.80;99.90
65462;DHT22;53236;43.666;18.444;2023-04-24T07:04:33;12.70;99.90
65462;DHT22;53236;43.666;18.444;2023-04-24T07:06:59;12.50;99.90
65462;DHT22;53236;43.666;18.444;2023-04-24T07:09:26;12.40;99.90
65462;DHT22;53236;43.666;18.444;2023-04-24T07:11:52;12.30;99.90
65462;DHT22;53236;43.666;18.444;2023-04-24T07:14:19;12.10;99.90
65462;DHT22;53236;43.666;18.444;2023-04-24T07:16:45;12.00;99.90
65462;DHT22;53236;43.666;18.444;2023-04-24T07:19:11;12.00;99.90
65462;DHT22;53236;43.666;18.444;2023-04-24T07:21:37;12.00;99.90
65462;DHT22;53236;43.666;18.444;2023-04-24T07:24:03;11.90;99.90
65462;DHT22;53236;43.666;18.444;2023-04-24T07:26:30;11.90;99.90
65462;DHT22;53236;43.666;18.444;2023-04-24T07:28:56;12.00;99.90
65462;DHT22;53236;43.666;18.444;2023-04-24T07:31:21;12.00;99.90
65462;DHT22;53236;43.666;18.444;2023-04-24T07:33:48;12.10;99.90
65462;DHT22;53236;43.666;18.444;2023-04-24T07:36:13;12.10;99.90
65462;DHT22;53236;43.666;18.444;2023-04-24T07:38:47;12.20;99.90
65462;DHT22;53236;43.666;18.444;2023-04-24T07:41:14;12.10;99.90
65462;DHT22;53236;43.666;18.444;2023-04-24T07:43:40;12.10;99.90
65462;DHT22;53236;43.666;18.444;2023-04-24T07:46:07;12.10;99.90
65462;DHT22;53236;43.666;18.444;2023-04-24T07:48:33;12.10;99.90
65462;DHT22;53236;43.666;18.444;2023-04-24T07:50:58;12.20;99.90
65462;DHT22;53236;43.666;18.444;2023-04-24T07:53:24;12.20;99.90
65462;DHT22;53236;43.666;18.444;2023-04-24T07:55:50;12.20;99.90
65462;DHT22;53236;43.666;18.444;2023-04-24T07:58:16;12.20;99.90
65462;DHT22;53236;43.666;18.444;2023-04-24T08:00:41;12.00;99.90
65462;DHT22;53236;43.666;18.444;2023-04-24T08:03:07;11.90;99.90
65462;DHT22;53236;43.666;18.444;2023-04-24T08:05:33;11.70;99.90
65462;DHT22;53236;43.666;18.444;2023-04-24T08:07:59;11.70;99.90
65462;DHT22;53236;43.666;18.444;2023-04-24T08:10:25;11.70;99.90
65462;DHT22;53236;43.666;18.444;2023-04-24T08:12:51;11.50;99.90
65462;DHT22;53236;43.666;18.444;2023-04-24T08:15:17;11.40;99.90
65462;DHT22;53236;43.666;18.444;2023-04-24T08:17:43;11.50;99.90
65462;DHT22;53236;43.666;18.444;2023-04-24T08:20:10;11.60;99.90
65462;DHT22;53236;43.666;18.444;2023-04-24T08:22:43;11.70;99.90
65462;DHT22;53236;43.666;18.444;2023-04-24T08:25:10;11.70;99.90
65462;DHT22;53236;43.666;18.444;2023-04-24T08:27:36;11.70;99.90
65462;DHT22;53236;43.666;18.444;2023-04-24T08:30:03;11.70;99.90
65462;DHT22;53236;43.666;18.444;2023-04-24T08:32:29;11.80;99.90
65462;DHT22;53236;43.666;18.444;2023-04-24T08:34:56;11.80;99.90
65462;DHT22;53236;43.666;18.444;2023-04-24T08:37:22;11.80;99.90
65462;DHT22;53236;43.666;18.444;2023-04-24T08:39:49;11.80;99.90
65462;DHT22;53236;43.666;18.444;2023-04-24T08:42:17;11.90;99.90
65462;DHT22;53236;43.666;18.444;2023-04-24T08:44:43;11.80;99.90
65462;DHT22;53236;43.666;18.444;2023-04-24T08:47:11;12.00;99.90
65462;DHT22;53236;43.666;18.444;2023-04-24T08:49:37;12.20;99.90
65462;DHT22;53236;43.666;18.444;2023-04-24T08:52:05;12.30;99.90
65462;DHT22;53236;43.666;18.444;2023-04-24T08:54:32;12.40;99.90
65462;DHT22;53236;43.666;18.444;2023-04-24T08:57:00;12.40;99.90
65462;DHT22;53236;43.666;18.444;2023-04-24T08:59:30;12.40;99.90
65462;DHT22;53236;43.666;18.444;2023-04-24T09:01:57;12.50;99.90
65462;DHT22;53236;43.666;18.444;2023-04-24T09:04:23;12.50;99.90
65462;DHT22;53236;43.666;18.444;2023-04-24T09:06:56;12.60;99.90
65462;DHT22;53236;43.666;18.444;2023-04-24T09:09:23;12.50;99.90
65462;DHT22;53236;43.666;18.444;2023-04-24T09:11:51;12.50;99.90
65462;DHT22;53236;43.666;18.444;2023-04-24T09:14:19;12.50;99.90
65462;DHT22;53236;43.666;18.444;2023-04-24T09:16:46;12.60;99.90
65462;DHT22;53236;43.666;18.444;2023-04-24T09:19:12;12.60;99.90
65462;DHT22;53236;43.666;18.444;2023-04-24T09:21:38;12.60;99.90
65462;DHT22;53236;43.666;18.444;2023-04-24T09:24:14;12.70;99.90
65462;DHT22;53236;43.666;18.444;2023-04-24T09:26:43;12.80;99.90
65462;DHT22;53236;43.666;18.444;2023-04-24T09:29:16;12.80;99.90
65462;DHT22;53236;43.666;18.444;2023-04-24T09:31:43;12.70;99.90
65462;DHT22;53236;43.666;18.444;2023-04-24T09:34:09;12.70;99.90
65462;DHT22;53236;43.666;18.444;2023-04-24T09:36:39;12.70;99.90
65462;DHT22;53236;43.666;18.444;2023-04-24T09:39:08;12.80;99.90
65462;DHT22;53236;43.666;18.444;2023-04-24T09:41:50;12.80;99.90
65462;DHT22;53236;43.666;18.444;2023-04-24T09:44:21;12.60;99.90
65462;DHT22;53236;43.666;18.444;2023-04-24T09:46:52;12.60;99.90
65462;DHT22;53236;43.666;18.444;2023-04-24T09:49:29;12.50;99.90
65462;DHT22;53236;43.666;18.444;2023-04-24T09:52:09;12.50;99.90
65462;DHT22;53236;43.666;18.444;2023-04-24T09:54:36;12.60;99.90
65462;DHT22;53236;43.666;18.444;2023-04-24T09:57:05;12.60;99.90
65462;DHT22;53236;43.666;18.444;2023-04-24T09:59:32;12.60;99.90
65462;DHT22;53236;43.666;18.444;2023-04-24T10:01:59;12.70;99.90
65462;DHT22;53236;43.666;18.444;2023-04-24T10:04:27;12.70;99.90
65462;DHT22;53236;43.666;18.444;2023-04-24T10:06:55;12.80;99.90
65462;DHT22;53236;43.666;18.444;2023-04-24T10:09:24;12.80;99.90
65462;DHT22;53236;43.666;18.444;2023-04-24T10:11:51;12.90;99.90
65462;DHT22;53236;43.666;18.444;2023-04-24T10:14:19;12.90;99.90
65462;DHT22;53236;43.666;18.444;2023-04-24T10:16:46;12.80;99.90
65462;DHT22;53236;43.666;18.444;2023-04-24T10:19:15;12.80;99.90
65462;DHT22;53236;43.666;18.444;2023-04-24T10:21:43;12.80;99.90
65462;DHT22;53236;43.666;18.444;2023-04-24T10:24:16;12.80;99.90
65462;DHT22;53236;43.666;18.444;2023-04-24T10:26:43;12.80;99.90
65462;DHT22;53236;43.666;18.444;2023-04-24T10:29:10;12.80;99.90
65462;DHT22;53236;43.666;18.444;2023-04-24T10:31:39;12.80;99.90
65462;DHT22;53236;43.666;18.444;2023-04-24T10:34:06;12.70;99.90
65462;DHT22;53236;43.666;18.444;2023-04-24T10:36:40;12.70;99.90
65462;DHT22;53236;43.666;18.444;2023-04-24T10:39:09;12.80;99.90
65462;DHT22;53236;43.666;18.444;2023-04-24T10:41:39;12.70;99.90
65462;DHT22;53236;43.666;18.444;2023-04-24T10:44:09;12.70;99.90
65462;DHT22;53236;43.666;18.444;2023-04-24T10:46:36;12.80;99.90
65462;DHT22;53236;43.666;18.444;2023-04-24T10:49:06;12.80;99.90
65462;DHT22;53236;43.666;18.444;2023-04-24T10:54:30;12.80;99.90
65462;DHT22;53236;43.666;18.444;2023-04-24T10:59:52;12.80;99.90
65462;DHT22;53236;43.666;18.444;2023-04-24T11:02:39;12.90;99.90
65462;DHT22;53236;43.666;18.444;2023-04-24T11:05:06;12.90;99.90
65462;DHT22;53236;43.666;18.444;2023-04-24T11:10:41;12.70;99.90
65462;DHT22;53236;43.666;18.444;2023-04-24T11:13:09;12.70;99.90
65462;DHT22;53236;43.666;18.444;2023-04-24T11:15:35;12.70;99.90
65462;DHT22;53236;43.666;18.444;2023-04-24T11:18:00;12.60;99.90
65462;DHT22;53236;43.666;18.444;2023-04-24T11:20:26;12.60;99.90
65462;DHT22;53236;43.666;18.444;2023-04-24T11:22:53;12.60;99.90
65462;DHT22;53236;43.666;18.444;2023-04-24T11:25:23;12.60;99.90
65462;DHT22;53236;43.666;18.444;2023-04-24T11:27:50;12.70;99.90
65462;DHT22;53236;43.666;18.444;2023-04-24T11:30:29;12.60;99.90
65462;DHT22;53236;43.666;18.444;2023-04-24T11:33:02;12.50;99.90
65462;DHT22;53236;43.666;18.444;2023-04-24T11:35:29;12.40;99.90
65462;DHT22;53236;43.666;18.444;2023-04-24T11:37:56;12.50;99.90
65462;DHT22;53236;43.666;18.444;2023-04-24T11:40:22;12.50;99.90
65462;DHT22;53236;43.666;18.444;2023-04-24T11:42:50;12.50;99.90
65462;DHT22;53236;43.666;18.444;2023-04-24T11:47:44;12.50;99.90
65462;DHT22;53236;43.666;18.444;2023-04-24T11:50:14;12.50;99.90
65462;DHT22;53236;43.666;18.444;2023-04-24T11:52:42;12.50;99.90
65462;DHT22;53236;43.666;18.444;2023-04-24T11:55:28;12.40;99.90
65462;DHT22;53236;43.666;18.444;2023-04-24T11:57:55;12.40;99.90
65462;DHT22;53236;43.666;18.444;2023-04-24T12:00:32;12.40;99.90
65462;DHT22;53236;43.666;18.444;2023-04-24T12:05:31;12.60;99.90
65462;DHT22;53236;43.666;18.444;2023-04-24T12:07:57;12.50;99.90
65462;DHT22;53236;43.666;18.444;2023-04-24T12:10:24;12.60;99.90
65462;DHT22;53236;43.666;18.444;2023-04-24T12:12:51;12.60;99.90
65462;DHT22;53236;43.666;18.444;2023-04-24T12:15:19;12.70;99.90
65462;DHT22;53236;43.666;18.444;2023-04-24T12:17:46;12.90;99.90
65462;DHT22;53236;43.666;18.444;2023-04-24T12:20:13;13.00;99.90
65462;DHT22;53236;43.666;18.444;2023-04-24T12:22:53;13.10;98.90
65462;DHT22;53236;43.666;18.444;2023-04-24T12:25:21;13.00;99.90
65462;DHT22;53236;43.666;18.444;2023-04-24T12:27:53;13.00;99.90
65462;DHT22;53236;43.666;18.444;2023-04-24T12:30:19;13.00;99.90
65462;DHT22;53236;43.666;18.444;2023-04-24T12:32:47;13.00;99.90
65462;DHT22;53236;43.666;18.444;2023-04-24T12:35:14;13.10;99.90
65462;DHT22;53236;43.666;18.444;2023-04-24T12:37:44;13.00;99.90
65462;DHT22;53236;43.666;18.444;2023-04-24T12:40:11;13.10;99.90
65462;DHT22;53236;43.666;18.444;2023-04-24T12:45:09;13.30;99.90
65462;DHT22;53236;43.666;18.444;2023-04-24T12:47:38;13.30;97.60
65462;DHT22;53236;43.666;18.444;2023-04-24T12:50:04;13.30;99.10
65462;DHT22;53236;43.666;18.444;2023-04-24T12:52:31;13.20;99.10
65462;DHT22;53236;43.666;18.444;2023-04-24T12:54:58;13.20;99.90
65462;DHT22;53236;43.666;18.444;2023-04-24T12:57:25;13.20;99.90
65462;DHT22;53236;43.666;18.444;2023-04-24T12:59:54;13.10;99.90
65462;DHT22;53236;43.666;18.444;2023-04-24T13:02:22;13.10;99.90
65462;DHT22;53236;43.666;18.444;2023-04-24T13:04:48;13.20;99.90
65462;DHT22;53236;43.666;18.444;2023-04-24T13:07:14;13.20;99.90
65462;DHT22;53236;43.666;18.444;2023-04-24T13:09:41;13.20;99.90
65462;DHT22;53236;43.666;18.444;2023-04-24T13:12:08;13.20;99.90
65462;DHT22;53236;43.666;18.444;2023-04-24T13:14:34;13.30;99.90
65462;DHT22;53236;43.666;18.444;2023-04-24T13:17:00;13.30;99.90
65462;DHT22;53236;43.666;18.444;2023-04-24T13:19:27;13.50;99.20
65462;DHT22;53236;43.666;18.444;2023-04-24T13:21:54;13.50;98.70
65462;DHT22;53236;43.666;18.444;2023-04-24T13:24:21;13.40;97.70
65462;DHT22;53236;43.666;18.444;2023-04-24T13:26:50;13.30;99.30
65462;DHT22;53236;43.666;18.444;2023-04-24T13:29:16;13.40;97.80
65462;DHT22;53236;43.666;18.444;2023-04-24T13:31:42;13.30;98.60
65462;DHT22;53236;43.666;18.444;2023-04-24T13:34:08;13.20;99.90
65462;DHT22;53236;43.666;18.444;2023-04-24T13:36:34;13.20;99.90
65462;DHT22;53236;43.666;18.444;2023-04-24T13:38:59;13.20;99.90
65462;DHT22;53236;43.666;18.444;2023-04-24T13:41:25;13.20;99.90
65462;DHT22;53236;43.666;18.444;2023-04-24T13:43:51;13.30;99.90
65462;DHT22;53236;43.666;18.444;2023-04-24T13:46:16;13.30;98.40
65462;DHT22;53236;43.666;18.444;2023-04-24T13:48:42;13.30;97.50
65462;DHT22;53236;43.666;18.444;2023-04-24T13:51:08;13.30;99.90
65462;DHT22;53236;43.666;18.444;2023-04-24T13:53:33;13.40;99.90
65462;DHT22;53236;43.666;18.444;2023-04-24T13:56:03;13.50;99.80
65462;DHT22;53236;43.666;18.444;2023-04-24T13:58:29;13.60;95.70
65462;DHT22;53236;43.666;18.444;2023-04-24T14:00:55;13.70;95.10
65462;DHT22;53236;43.666;18.444;2023-04-24T14:03:21;13.80;97.60
65462;DHT22;53236;43.666;18.444;2023-04-24T14:05:46;13.90;95.70
65462;DHT22;53236;43.666;18.444;2023-04-24T14:08:12;13.80;92.30
65462;DHT22;53236;43.666;18.444;2023-04-24T14:10:38;13.90;90.50
65462;DHT22;53236;43.666;18.444;2023-04-24T14:13:03;13.90;87.40
65462;DHT22;53236;43.666;18.444;2023-04-24T14:15:29;13.80;90.30
65462;DHT22;53236;43.666;18.444;2023-04-24T14:17:55;13.70;93.20
65462;DHT22;53236;43.666;18.444;2023-04-24T14:20:21;13.70;92.30
65462;DHT22;53236;43.666;18.444;2023-04-24T14:22:47;13.60;97.60
65462;DHT22;53236;43.666;18.444;2023-04-24T14:25:13;13.40;97.80
65462;DHT22;53236;43.666;18.444;2023-04-24T14:27:39;12.90;99.90
65462;DHT22;53236;43.666;18.444;2023-04-24T14:30:06;12.40;99.90
65462;DHT22;53236;43.666;18.444;2023-04-24T14:32:32;11.90;99.90
65462;DHT22;53236;43.666;18.444;2023-04-24T14:34:58;11.80;99.90
65462;DHT22;53236;43.666;18.444;2023-04-24T14:37:23;11.40;99.90
65462;DHT22;53236;43.666;18.444;2023-04-24T14:39:49;11.30;99.90
65462;DHT22;53236;43.666;18.444;2023-04-24T14:42:15;11.40;99.90
65462;DHT22;53236;43.666;18.444;2023-04-24T14:44:42;11.50;99.90
65462;DHT22;53236;43.666;18.444;2023-04-24T14:47:08;11.50;99.90
65462;DHT22;53236;43.666;18.444;2023-04-24T14:49:34;11.70;99.90
65462;DHT22;53236;43.666;18.444;2023-04-24T14:51:59;11.90;99.90
65462;DHT22;53236;43.666;18.444;2023-04-24T14:54:25;12.00;99.90
65462;DHT22;53236;43.666;18.444;2023-04-24T14:56:51;12.20;99.90
65462;DHT22;53236;43.666;18.444;2023-04-24T14:59:17;12.30;99.90
65462;DHT22;53236;43.666;18.444;2023-04-24T15:01:42;12.30;99.90
65462;DHT22;53236;43.666;18.444;2023-04-24T15:04:08;12.40;99.90
65462;DHT22;53236;43.666;18.444;2023-04-24T15:06:34;12.20;99.90
65462;DHT22;53236;43.666;18.444;2023-04-24T15:09:00;12.30;99.90
65462;DHT22;53236;43.666;18.444;2023-04-24T15:11:25;12.20;99.90
65462;DHT22;53236;43.666;18.444;2023-04-24T15:13:51;12.10;99.90
65462;DHT22;53236;43.666;18.444;2023-04-24T15:16:17;12.00;99.90
65462;DHT22;53236;43.666;18.444;2023-04-24T15:18:43;11.80;99.90
65462;DHT22;53236;43.666;18.444;2023-04-24T15:21:08;11.70;99.90
65462;DHT22;53236;43.666;18.444;2023-04-24T15:23:34;11.70;99.90
65462;DHT22;53236;43.666;18.444;2023-04-24T15:26:00;11.70;99.90
65462;DHT22;53236;43.666;18.444;2023-04-24T15:28:26;11.70;99.90
65462;DHT22;53236;43.666;18.444;2023-04-24T15:30:52;11.80;99.90
65462;DHT22;53236;43.666;18.444;2023-04-24T15:33:18;11.90;99.90
65462;DHT22;53236;43.666;18.444;2023-04-24T15:35:43;12.00;99.90